Time;durP1;ratioP1;P1;durP2;ratioP2;P2;SDS_P1;SDS_P2;PMS_P1;PMS_P2;Temp;Humidity;BMP_temperature;BMP_pressure;BME280_temperature;BME280_humidity;BME280_pressure;Samples;Min_cycle;Max_cycle;Signal;HPM_P1;HPM_P2
2021/10/18 00:06:24;;;;;;;13.30;9.40;;;;;;;6.83;72.12;99929.70;477865;1190;141612;-62
2021/10/18 00:16:30;;;;;;;14.10;8.90;;;;;;;6.75;72.39;99923.60;477818;1190;141738;-62
2021/10/18 00:26:36;;;;;;;14.10;8.30;;;;;;;6.74;72.79;99928.17;476638;1190;141589;-63
2021/10/18 00:36:42;;;;;;;15.20;9.90;;;;;;;6.75;73.18;99928.82;477487;1191;145134;-62
2021/10/18 00:46:49;;;;;;;12.50;9.60;;;;;;;6.82;73.41;99931.48;477974;1190;140998;-62
2021/10/18 00:56:56;;;;;;;14.60;10.60;;;;;;;6.87;73.59;99930.73;468566;1190;141942;-62
2021/10/18 01:07:03;;;;;;;14.60;10.20;;;;;;;6.88;74.10;99927.58;477870;1190;141627;-62
2021/10/18 01:17:10;;;;;;;14.50;9.50;;;;;;;6.97;74.70;99930.98;477681;1190;142100;-62
2021/10/18 01:27:16;;;;;;;13.80;9.00;;;;;;;6.89;75.41;99934.30;477117;1190;142114;-61
2021/10/18 01:37:22;;;;;;;10.50;9.40;;;;;;;6.84;76.24;99928.59;465107;1191;140686;-61
2021/10/18 01:47:28;;;;;;;15.30;10.80;;;;;;;6.88;76.82;99921.13;473841;1190;141984;-63
2021/10/18 01:57:35;;;;;;;14.80;10.60;;;;;;;6.85;77.19;99919.00;477720;1190;140989;-61
2021/10/18 02:07:44;;;;;;;11.90;10.40;;;;;;;6.89;77.49;99922.31;477809;1190;142097;-61
2021/10/18 02:17:51;;;;;;;15.80;10.70;;;;;;;7.02;77.76;99915.81;471780;1190;141318;-61
2021/10/18 02:27:57;;;;;;;11.80;10.10;;;;;;;6.98;77.80;99917.54;463764;1190;183077;-62
2021/10/18 02:38:03;;;;;;;14.50;11.80;;;;;;;6.94;78.28;99926.10;477817;1190;141584;-61
2021/10/18 02:48:12;;;;;;;14.70;11.90;;;;;;;7.06;78.53;99929.59;477151;1190;141248;-61
2021/10/18 02:58:18;;;;;;;17.80;12.90;;;;;;;7.14;78.61;99933.06;477784;1190;141601;-61
2021/10/18 03:08:24;;;;;;;18.40;13.70;;;;;;;7.23;78.76;99932.32;477038;1190;144879;-61
2021/10/18 03:18:30;;;;;;;21.70;15.40;;;;;;;7.33;78.90;99936.61;477510;1190;141362;-62
2021/10/18 03:28:36;;;;;;;25.10;16.10;;;;;;;7.37;79.04;99944.92;477909;1190;140903;-62
2021/10/18 03:38:42;;;;;;;24.70;17.60;;;;;;;7.39;79.06;99945.70;473256;1183;141097;-61
2021/10/18 03:48:49;;;;;;;24.10;18.20;;;;;;;7.42;79.24;99946.09;462594;1190;141325;-63
2021/10/18 03:58:55;;;;;;;26.70;18.20;;;;;;;7.45;79.28;99956.77;470008;1191;140968;-62
2021/10/18 04:09:01;;;;;;;29.00;20.00;;;;;;;7.40;79.58;99962.58;477036;1190;141610;-62
2021/10/18 04:19:08;;;;;;;36.90;23.70;;;;;;;7.40;79.76;99971.45;477894;1190;141754;-62
2021/10/18 04:29:14;;;;;;;32.10;21.80;;;;;;;7.44;80.04;99978.92;477849;1190;140849;-61
2021/10/18 04:39:21;;;;;;;31.90;24.50;;;;;;;7.50;79.95;99980.77;477755;1190;140892;-61
2021/10/18 04:49:27;;;;;;;36.80;25.10;;;;;;;7.51;80.13;99986.97;473117;1190;141622;-61
2021/10/18 04:59:33;;;;;;;29.30;21.60;;;;;;;7.49;80.37;100001.00;477028;1190;142925;-63
2021/10/18 05:09:39;;;;;;;31.50;23.00;;;;;;;7.45;80.53;100016.70;477709;1190;142076;-63
2021/10/18 05:19:50;;;;;;;33.00;23.40;;;;;;;7.37;80.76;100028.19;477938;1190;142097;-64
2021/10/18 05:29:56;;;;;;;26.40;19.90;;;;;;;7.36;81.05;100039.74;477097;1190;142868;-63
2021/10/18 05:40:01;;;;;;;25.00;20.70;;;;;;;7.39;81.15;100048.48;477598;1190;142408;-64
2021/10/18 05:50:10;;;;;;;26.70;19.10;;;;;;;7.40;81.34;100065.52;477465;1190;143342;-64
2021/10/18 06:00:17;;;;;;;21.50;19.20;;;;;;;7.48;81.50;100084.16;476899;1190;142197;-63
2021/10/18 06:10:23;;;;;;;23.40;18.80;;;;;;;7.61;81.38;100103.46;477879;1190;141571;-64
2021/10/18 06:20:29;;;;;;;21.10;16.60;;;;;;;7.67;81.45;100111.38;477090;1190;143739;-62
2021/10/18 06:30:35;;;;;;;18.60;16.60;;;;;;;7.74;81.37;100120.14;475022;1190;141822;-63
2021/10/18 06:40:41;;;;;;;19.30;15.90;;;;;;;7.87;81.46;100130.55;475154;1190;141668;-63
2021/10/18 06:50:48;;;;;;;18.40;16.50;;;;;;;8.08;81.27;100138.33;477129;1190;142220;-63
2021/10/18 07:00:54;;;;;;;20.60;17.50;;;;;;;8.17;81.08;100145.45;477811;1190;142139;-63
2021/10/18 07:11:00;;;;;;;22.90;15.90;;;;;;;8.30;81.13;100154.98;477815;1190;141976;-63
2021/10/18 07:21:06;;;;;;;17.20;14.50;;;;;;;8.57;80.77;100160.59;472571;1190;141579;-63
2021/10/18 07:31:12;;;;;;;17.00;14.90;;;;;;;9.02;80.42;100175.44;461617;1190;140976;-63
2021/10/18 07:41:18;;;;;;;15.10;12.40;;;;;;;9.36;79.49;100181.30;460551;1177;141365;-63
2021/10/18 07:51:24;;;;;;;16.40;12.20;;;;;;;9.20;79.21;100179.30;477763;1190;183069;-64
2021/10/18 08:01:30;;;;;;;12.40;10.60;;;;;;;9.37;78.96;100183.53;463639;1190;141887;-65
2021/10/18 08:11:36;;;;;;;14.70;10.40;;;;;;;9.49;78.37;100193.23;464715;1190;142578;-63
2021/10/18 08:21:42;;;;;;;14.70;11.30;;;;;;;9.38;78.43;100210.02;467551;1190;141383;-63
2021/10/18 08:31:48;;;;;;;13.40;9.80;;;;;;;10.10;78.10;100208.52;468171;1190;141348;-63
2021/10/18 08:41:56;;;;;;;12.30;10.20;;;;;;;10.39;76.98;100212.98;477089;1190;143399;-63
2021/10/18 08:52:01;;;;;;;;;;;;;;;10.55;76.58;100214.45;477966;1190;141627;-64
2021/10/18 09:02:06;;;;;;;11.00;9.60;;;;;;;10.76;76.06;100218.02;478077;1190;127887;-64
2021/10/18 09:12:24;;;;;;;12.80;9.50;;;;;;;10.97;75.03;100220.92;477097;1190;143686;-64
2021/10/18 09:22:30;;;;;;;9.70;8.40;;;;;;;11.26;74.65;100218.75;470180;1190;142231;-64
2021/10/18 09:32:36;;;;;;;7.50;6.80;;;;;;;11.30;73.57;100226.64;465658;1190;142267;-67
2021/10/18 09:42:57;;;;;;;11.80;7.90;;;;;;;11.69;72.96;100226.30;477864;1190;141811;-64
2021/10/18 10:56:25;;;;;;;12.50;6.60;;;;;;;12.75;68.93;100240.88;477888;1190;141443;-63
2021/10/18 11:06:47;;;;;;;10.40;7.90;;;;;;;12.53;69.10;100242.25;477902;1190;141709;-63
2021/10/18 11:16:53;;;;;;;11.50;7.10;;;;;;;12.62;68.72;100244.31;477944;1190;142796;-63
2021/10/18 11:26:59;;;;;;;11.40;7.00;;;;;;;12.47;69.39;100241.22;477095;1190;142275;-63
2021/10/18 11:37:07;;;;;;;9.20;6.60;;;;;;;12.60;69.19;100234.48;477946;1190;141461;-63
2021/10/18 11:47:30;;;;;;;12.30;8.40;;;;;;;12.19;69.64;100239.36;477859;1190;141448;-63
2021/10/18 11:57:41;;;;;;;10.80;8.50;;;;;;;11.82;70.10;100250.99;477712;1190;142235;-63
2021/10/18 12:07:50;;;;;;;13.40;9.50;;;;;;;11.37;71.32;100252.87;477871;1190;141291;-64
2021/10/18 12:17:56;;;;;;;14.00;10.90;;;;;;;11.17;71.99;100241.73;461586;1190;140915;-63
2021/10/18 12:28:19;;;;;;;12.70;10.90;;;;;;;10.74;72.68;100240.90;461100;1177;141098;-62
2021/10/18 12:38:29;;;;;;;15.10;11.20;;;;;;;10.55;73.65;100237.00;475665;1190;141753;-63
2021/10/18 12:48:35;;;;;;;14.80;12.90;;;;;;;10.63;74.25;100237.63;471452;1190;141429;-63
2021/10/18 12:58:41;;;;;;;21.90;14.30;;;;;;;10.60;74.52;100238.85;465290;1190;141641;-64
2021/10/18 13:08:47;;;;;;;19.80;14.80;;;;;;;10.60;74.63;100249.90;476758;1190;141109;-64
2021/10/18 13:18:52;;;;;;;24.50;14.50;;;;;;;10.30;74.67;100263.33;470140;1190;142417;-60
2021/10/18 13:28:58;;;;;;;20.50;17.00;;;;;;;10.10;75.11;100266.94;465541;1190;144503;-64
2021/10/18 13:39:04;;;;;;;21.60;17.60;;;;;;;9.77;75.78;100269.64;473178;1190;148228;-63
2021/10/18 13:49:31;;;;;;;24.90;18.10;;;;;;;9.62;76.37;100265.14;477974;1190;141214;-64
2021/10/18 13:59:40;;;;;;;21.30;18.80;;;;;;;9.66;76.57;100268.97;477148;1190;142305;-64
2021/10/18 14:09:46;;;;;;;25.20;20.20;;;;;;;9.62;76.88;100272.69;477978;1190;142888;-64
2021/10/18 14:19:52;;;;;;;29.10;22.50;;;;;;;9.61;77.35;100276.71;477639;1190;141192;-64
2021/10/18 14:29:58;;;;;;;32.40;26.20;;;;;;;9.54;77.59;100273.56;465561;1190;141923;-62
2021/10/18 14:40:05;;;;;;;36.00;26.30;;;;;;;9.44;77.79;100261.10;466603;1183;140968;-64
2021/10/18 14:50:14;;;;;;;35.20;26.50;;;;;;;9.46;78.14;100257.55;461372;1190;10001668;-64
2021/10/18 15:00:21;;;;;;;41.00;30.40;;;;;;;9.40;78.30;100270.39;477600;1190;142346;-73
2021/10/18 15:10:27;;;;;;;38.30;30.30;;;;;;;9.28;78.74;100282.84;465334;1190;142582;-72
2021/10/18 15:20:33;;;;;;;39.80;30.20;;;;;;;9.29;78.64;100284.53;476755;1190;142079;-72
2021/10/18 15:30:39;;;;;;;43.00;33.30;;;;;;;9.25;78.79;100269.70;477878;1190;142920;-70
2021/10/18 15:40:46;;;;;;;47.00;31.30;;;;;;;9.24;78.95;100255.45;477672;1190;141598;-70
2021/10/18 15:50:52;;;;;;;42.00;32.20;;;;;;;9.14;79.13;100246.48;468148;1189;142871;-67
2021/10/18 16:01:03;;;;;;;38.90;29.70;;;;;;;9.11;79.33;100263.57;476718;1190;144571;-70
2021/10/18 16:11:09;;;;;;;37.90;29.40;;;;;;;9.06;79.42;100278.98;477600;1190;141526;-70
2021/10/18 16:21:17;;;;;;;42.00;32.10;;;;;;;9.00;79.56;100279.27;476928;1189;142366;-70
2021/10/18 16:31:24;;;;;;;42.30;32.80;;;;;;;8.97;79.64;100281.14;477584;1189;142372;-71
2021/10/18 16:41:30;;;;;;;46.10;34.50;;;;;;;8.94;79.77;100288.23;476638;1190;141879;-61
2021/10/18 16:51:36;;;;;;;37.60;30.40;;;;;;;8.92;80.10;100295.33;477299;1190;141355;-66
2021/10/18 17:01:45;;;;;;;40.00;31.00;;;;;;;8.87;80.36;100303.75;477471;1190;145282;-67
2021/10/18 17:11:53;;;;;;;41.00;32.30;;;;;;;8.85;80.34;100308.04;476740;1190;142662;-66
2021/10/18 17:21:59;;;;;;;41.50;32.40;;;;;;;8.76;80.52;100305.13;477814;1190;143093;-66
2021/10/18 17:32:07;;;;;;;47.70;36.40;;;;;;;8.75;80.86;100303.11;477803;1190;142300;-66
2021/10/18 17:42:15;;;;;;;42.50;33.10;;;;;;;8.74;81.10;100312.70;476757;1190;143113;-63
2021/10/18 17:52:21;;;;;;;37.00;31.90;;;;;;;8.68;81.17;100318.06;477830;1190;141233;-62
2021/10/18 18:02:29;;;;;;;45.50;32.80;;;;;;;8.60;81.27;100312.28;476868;1190;141265;-59
2021/10/18 18:12:33;;;;;;;;;;;;;;;8.54;81.60;100313.43;477840;1190;141454;-70
2021/10/18 18:22:40;;;;;;;38.60;31.40;;;;;;;8.42;81.75;100319.69;477555;1191;127515;-72
2021/10/18 18:32:48;;;;;;;36.00;28.70;;;;;;;8.38;81.96;100330.85;477035;1190;142085;-69
2021/10/18 18:42:56;;;;;;;35.30;27.80;;;;;;;8.39;82.00;100343.17;461181;1190;10003783;-67
2021/10/18 18:53:02;;;;;;;37.90;28.60;;;;;;;8.38;82.18;100353.32;476676;1192;142110;-66
2021/10/18 19:03:09;;;;;;;34.40;27.50;;;;;;;8.39;82.48;100358.16;468067;1190;10002757;-62
2021/10/18 19:13:16;;;;;;;42.40;34.80;;;;;;;8.44;82.51;100355.00;478104;1189;141646;-64
2021/10/18 19:23:22;;;;;;;37.80;30.60;;;;;;;8.41;82.43;100354.27;477139;1189;142001;-63
2021/10/18 19:33:29;;;;;;;33.50;29.00;;;;;;;8.41;82.52;100351.80;477717;1190;143446;-63
2021/10/18 19:43:35;;;;;;;38.80;29.60;;;;;;;8.43;82.46;100341.27;477899;1189;145359;-60
2021/10/18 19:53:41;;;;;;;37.20;31.00;;;;;;;8.39;82.72;100337.41;476447;1189;142179;-63
2021/10/18 20:03:47;;;;;;;35.70;30.30;;;;;;;8.34;82.78;100331.52;473771;1189;141908;-60
2021/10/18 20:13:53;;;;;;;38.80;29.40;;;;;;;8.27;82.97;100334.59;477948;1189;141808;-66
2021/10/18 20:24:00;;;;;;;36.40;30.60;;;;;;;8.23;82.97;100343.69;477182;1189;142200;-64
2021/10/18 20:34:06;;;;;;;39.00;30.60;;;;;;;8.24;83.21;100339.10;477868;1189;143200;-64
2021/10/18 20:44:13;;;;;;;34.50;26.50;;;;;;;8.31;83.31;100341.61;477936;1189;141785;-63
2021/10/18 20:54:19;;;;;;;34.20;28.80;;;;;;;8.31;83.13;100343.34;477932;1189;141325;-63
2021/10/18 21:04:28;;;;;;;31.40;24.60;;;;;;;8.32;83.19;100363.19;463641;1189;142500;-64
2021/10/18 21:14:33;;;;;;;26.80;22.50;;;;;;;8.36;83.38;100376.43;475545;1190;142454;-70
2021/10/18 21:24:40;;;;;;;33.40;24.30;;;;;;;8.35;83.15;100373.37;478021;1189;143461;-66
2021/10/18 21:34:46;;;;;;;27.10;23.00;;;;;;;8.30;83.18;100381.59;477959;1189;142217;-65
2021/10/18 21:44:52;;;;;;;26.50;21.30;;;;;;;8.26;83.46;100381.20;471562;1189;141988;-66
2021/10/18 21:54:59;;;;;;;28.30;22.40;;;;;;;8.26;83.63;100375.09;474484;1189;141220;-66
2021/10/18 22:05:05;;;;;;;26.10;20.20;;;;;;;8.23;83.57;100367.22;475852;1189;142360;-68
2021/10/18 22:15:12;;;;;;;25.40;20.50;;;;;;;8.16;83.65;100372.39;477195;1189;141134;-68
2021/10/18 22:25:18;;;;;;;25.90;20.80;;;;;;;8.14;83.81;100364.79;462871;1190;141260;-67
2021/10/18 22:35:24;;;;;;;24.50;19.70;;;;;;;8.22;83.97;100363.42;470889;1189;141459;-66
2021/10/18 22:45:30;;;;;;;22.80;19.10;;;;;;;8.23;83.83;100357.27;477896;1189;141974;-66
2021/10/18 22:55:37;;;;;;;22.70;20.00;;;;;;;8.25;83.69;100362.95;477982;1190;145340;-66
2021/10/18 23:05:43;;;;;;;37.00;23.70;;;;;;;8.28;83.73;100368.57;477142;1190;141756;-66
2021/10/18 23:15:50;;;;;;;28.20;20.50;;;;;;;8.33;83.72;100370.81;477940;1190;143487;-67
2021/10/18 23:25:57;;;;;;;26.20;20.70;;;;;;;8.36;83.75;100369.82;469361;1190;140966;-65
2021/10/18 23:36:03;;;;;;;24.20;20.70;;;;;;;8.40;83.63;100373.67;464694;1190;142325;-66
2021/10/18 23:46:10;;;;;;;24.60;21.30;;;;;;;8.34;83.75;100377.55;460783;1190;141498;-65
2021/10/18 23:56:16;;;;;;;24.20;20.70;;;;;;;8.31;83.95;100400.05;466416;1189;141135;-67
